Time;durP1;ratioP1;P1;durP2;ratioP2;P2;SDS_P1;SDS_P2;PMS_P1;PMS_P2;Temp;Humidity;BMP_temperature;BMP_pressure;BME280_temperature;BME280_humidity;BME280_pressure;Samples;Min_cycle;Max_cycle;Signal;HPM_P1;HPM_P2
2023/06/10 00:00:36;;;;;;;10.57;6.65;;;;;;;21.19;100.00;101377.91;5083923;28;20028;-45
2023/06/10 00:03:02;;;;;;;12.93;6.57;;;;;;;21.13;100.00;101387.09;5079170;28;20034;-43
2023/06/10 00:05:29;;;;;;;18.10;6.70;;;;;;;21.12;100.00;101382.69;5083446;28;20024;-42
2023/06/10 00:07:56;;;;;;;7.57;6.15;;;;;;;21.06;100.00;101389.94;5085891;28;20418;-46
2023/06/10 00:10:21;;;;;;;8.30;5.53;;;;;;;21.00;100.00;101385.41;5072290;28;20047;-45
2023/06/10 00:12:47;;;;;;;10.77;6.30;;;;;;;20.98;100.00;101390.28;5087746;28;20039;-44
2023/06/10 00:15:12;;;;;;;10.38;6.25;;;;;;;20.98;100.00;101393.03;5089518;28;20421;-42
2023/06/10 00:17:38;;;;;;;13.45;6.30;;;;;;;20.91;100.00;101392.34;5079731;28;20059;-42
2023/06/10 00:20:08;;;;;;;10.98;6.03;;;;;;;20.93;100.00;101390.16;5078385;28;20040;-46
2023/06/10 00:22:34;;;;;;;12.07;5.88;;;;;;;20.94;100.00;101395.41;5085194;28;20519;-43
2023/06/10 00:24:59;;;;;;;14.07;6.53;;;;;;;20.94;100.00;101394.59;5090945;28;20035;-44
2023/06/10 00:27:31;;;;;;;14.15;5.82;;;;;;;20.92;100.00;101388.53;5079763;28;20312;-45
2023/06/10 00:29:56;;;;;;;10.57;6.43;;;;;;;20.89;100.00;101384.34;5090665;28;20036;-47
2023/06/10 00:32:21;;;;;;;11.10;6.10;;;;;;;20.87;100.00;101389.22;5087333;28;20038;-46
2023/06/10 00:34:47;;;;;;;10.45;6.20;;;;;;;20.89;100.00;101391.72;5069154;28;20382;-47
2023/06/10 00:37:12;;;;;;;7.47;6.00;;;;;;;20.87;100.00;101388.41;5072679;28;20171;-43
2023/06/10 00:39:37;;;;;;;8.27;6.07;;;;;;;20.80;100.00;101391.22;5089747;28;20047;-45
2023/06/10 00:42:06;;;;;;;9.00;5.88;;;;;;;20.77;100.00;101392.56;5090789;28;20077;-45
2023/06/10 00:44:32;;;;;;;12.15;5.90;;;;;;;20.78;100.00;101390.66;5071172;28;20043;-46
2023/06/10 00:46:57;;;;;;;11.57;6.13;;;;;;;20.73;100.00;101388.63;5069426;28;20025;-44
2023/06/10 00:49:22;;;;;;;6.60;5.63;;;;;;;20.73;100.00;101402.31;5090001;28;20328;-46
2023/06/10 00:51:48;;;;;;;9.98;6.03;;;;;;;20.73;100.00;101398.75;5090668;28;20394;-45
2023/06/10 00:54:13;;;;;;;9.77;5.75;;;;;;;20.69;100.00;101401.09;5090797;28;20436;-44
2023/06/10 00:56:39;;;;;;;11.73;6.25;;;;;;;20.65;100.00;101390.88;5076651;28;20024;-44
2023/06/10 00:59:04;;;;;;;12.88;6.28;;;;;;;20.61;100.00;101387.75;5088377;28;20089;-47
2023/06/10 01:01:30;;;;;;;10.23;5.75;;;;;;;20.58;100.00;101388.25;5084169;28;20031;-45
2023/06/10 01:03:58;;;;;;;14.90;6.22;;;;;;;20.53;100.00;101394.38;5077250;28;20335;-45
2023/06/10 01:06:35;;;;;;;10.50;5.50;;;;;;;20.50;100.00;101396.75;5085540;28;20023;-44
2023/06/10 01:09:21;;;;;;;11.50;5.90;;;;;;;20.47;100.00;101391.75;5086254;28;20046;-44
2023/06/10 01:11:49;;;;;;;13.65;5.63;;;;;;;20.46;100.00;101384.59;5088689;28;20405;-45
2023/06/10 01:14:16;;;;;;;13.27;5.30;;;;;;;20.41;100.00;101388.06;5073752;28;20507;-45
2023/06/10 01:16:42;;;;;;;10.68;5.20;;;;;;;20.35;100.00;101388.97;5068908;28;20021;-46
2023/06/10 01:19:07;;;;;;;8.38;5.05;;;;;;;20.30;100.00;101376.03;5068901;28;20029;-44
2023/06/10 01:21:33;;;;;;;8.05;5.55;;;;;;;20.29;100.00;101392.66;5068804;28;20024;-46
2023/06/10 01:23:58;;;;;;;8.95;5.05;;;;;;;20.32;100.00;101394.91;5070713;28;20033;-46
2023/06/10 01:26:30;;;;;;;9.07;5.60;;;;;;;20.23;100.00;101391.69;5069752;28;20028;-45
2023/06/10 01:29:14;;;;;;;7.57;5.40;;;;;;;20.22;100.00;101394.66;5070947;28;20032;-45
2023/06/10 01:31:49;;;;;;;11.20;5.13;;;;;;;20.21;100.00;101387.53;5070179;28;20074;-44
2023/06/10 01:34:17;;;;;;;8.82;5.57;;;;;;;20.14;100.00;101390.34;5069695;28;20371;-43
2023/06/10 01:36:45;;;;;;;;;;;;;;;20.11;100.00;101388.06;5070200;28;20029;-45
2023/06/10 01:39:10;;;;;;;;;;;;;;;20.03;100.00;101391.13;5088614;28;19946;-46
2023/06/10 01:41:36;;;;;;;12.85;5.07;;;;;;;19.98;100.00;101388.25;5081909;28;20030;-46
2023/06/10 01:44:02;;;;;;;8.15;5.30;;;;;;;19.97;100.00;101392.06;5086418;28;20115;-45
2023/06/10 01:46:27;;;;;;;7.50;5.00;;;;;;;19.91;100.00;101389.19;5088576;28;20060;-45
2023/06/10 01:48:53;;;;;;;11.32;5.50;;;;;;;19.91;100.00;101389.19;5069023;28;20060;-44
2023/06/10 01:51:18;;;;;;;10.82;4.70;;;;;;;19.88;100.00;101392.41;5070879;28;20023;-46
2023/06/10 01:53:44;;;;;;;8.50;5.55;;;;;;;19.83;100.00;101388.69;5070269;28;20036;-44
2023/06/10 01:56:09;;;;;;;8.48;5.28;;;;;;;19.82;100.00;101382.38;5080733;28;20022;-44
2023/06/10 01:58:35;;;;;;;9.40;5.05;;;;;;;19.81;100.00;101388.91;5077127;28;20045;-45
2023/06/10 02:01:00;;;;;;;8.10;5.43;;;;;;;19.74;100.00;101382.69;5071452;28;20467;-44
2023/06/10 02:03:25;;;;;;;11.43;5.78;;;;;;;19.70;100.00;101393.25;5089988;28;20035;-44
2023/06/10 02:05:51;;;;;;;14.13;5.05;;;;;;;19.72;100.00;101391.13;5090621;28;20052;-45
2023/06/10 02:08:16;;;;;;;15.30;5.72;;;;;;;19.67;100.00;101390.16;5086689;28;20032;-43
2023/06/10 02:10:41;;;;;;;11.50;5.70;;;;;;;19.66;100.00;101388.44;5091861;28;20088;-46
2023/06/10 02:13:07;;;;;;;9.60;5.32;;;;;;;19.64;100.00;101393.28;5082067;28;20020;-42
2023/06/10 02:15:32;;;;;;;8.90;5.20;;;;;;;19.64;100.00;101398.75;5093211;28;20024;-43
2023/06/10 02:17:59;;;;;;;11.57;5.35;;;;;;;19.59;100.00;101395.88;5077588;28;20044;-46
2023/06/10 02:20:24;;;;;;;7.73;5.30;;;;;;;19.59;100.00;101387.69;5073403;28;20036;-47
2023/06/10 02:22:50;;;;;;;10.07;5.05;;;;;;;19.59;100.00;101390.41;5073250;28;20378;-49
2023/06/10 02:25:15;;;;;;;13.13;5.15;;;;;;;19.58;100.00;101394.22;5072840;28;20044;-45
2023/06/10 02:27:41;;;;;;;10.50;5.57;;;;;;;19.53;100.00;101387.53;5076201;28;20024;-46
2023/06/10 02:30:09;;;;;;;8.73;5.30;;;;;;;19.49;100.00;101390.97;5068733;28;20108;-44
2023/06/10 02:32:34;;;;;;;8.93;4.88;;;;;;;19.47;100.00;101393.91;5072881;28;20486;-44
2023/06/10 02:35:00;;;;;;;9.23;5.57;;;;;;;19.44;100.00;101390.81;5071492;28;20025;-45
2023/06/10 02:37:25;;;;;;;10.63;5.45;;;;;;;19.42;100.00;101401.94;5089070;28;20078;-46
2023/06/10 02:39:50;;;;;;;10.75;5.30;;;;;;;19.34;100.00;101394.06;5072625;28;20542;-47
2023/06/10 02:42:16;;;;;;;11.38;5.32;;;;;;;19.34;100.00;101391.31;5081602;28;20028;-46
2023/06/10 02:44:41;;;;;;;11.20;5.10;;;;;;;19.33;100.00;101397.03;5075737;28;20035;-43
2023/06/10 02:47:07;;;;;;;12.65;4.95;;;;;;;19.28;100.00;101397.69;5076008;28;20107;-45
2023/06/10 02:49:32;;;;;;;10.63;4.90;;;;;;;19.22;100.00;101396.72;5084537;28;20120;-45
2023/06/10 02:51:58;;;;;;;10.13;5.07;;;;;;;19.24;100.00;101394.56;5086242;28;20141;-46
2023/06/10 02:54:24;;;;;;;11.68;5.32;;;;;;;19.26;100.00;101397.09;5092916;28;20020;-43
2023/06/10 02:56:51;;;;;;;10.50;5.20;;;;;;;19.22;100.00;101398.59;5080200;28;20021;-46
2023/06/10 02:59:16;;;;;;;9.43;5.45;;;;;;;19.20;100.00;101398.00;5072699;28;20059;-46
2023/06/10 03:01:42;;;;;;;9.07;5.18;;;;;;;19.17;100.00;101392.97;5073494;28;20043;-45
2023/06/10 03:04:08;;;;;;;8.57;4.93;;;;;;;19.16;100.00;101392.13;5073235;28;20028;-44
2023/06/10 03:06:35;;;;;;;11.15;5.13;;;;;;;19.15;100.00;101398.66;5070760;28;20036;-44
2023/06/10 03:09:01;;;;;;;7.88;4.63;;;;;;;19.13;100.00;101394.50;5087928;28;20377;-44
2023/06/10 03:11:26;;;;;;;10.70;5.07;;;;;;;19.10;100.00;101405.88;5071602;28;20115;-44
2023/06/10 03:13:53;;;;;;;11.90;5.13;;;;;;;19.07;100.00;101399.78;5078326;28;20112;-46
2023/06/10 03:16:19;;;;;;;10.90;5.30;;;;;;;19.04;100.00;101396.69;5069566;28;20040;-46
2023/06/10 03:18:44;;;;;;;7.70;4.95;;;;;;;19.01;100.00;101399.84;5072758;28;20035;-44
2023/06/10 03:21:10;;;;;;;11.52;4.90;;;;;;;18.94;100.00;101399.91;5082407;28;20016;-46
2023/06/10 03:23:35;;;;;;;10.85;5.50;;;;;;;18.91;100.00;101400.38;5070223;28;20290;-44
2023/06/10 03:26:02;;;;;;;9.15;5.20;;;;;;;18.91;100.00;101400.38;5070242;28;20147;-45
2023/06/10 03:28:27;;;;;;;11.07;5.25;;;;;;;18.86;100.00;101402.94;5071141;28;20039;-44
2023/06/10 03:30:54;;;;;;;8.77;4.68;;;;;;;18.85;100.00;101409.44;5069549;28;20386;-45
2023/06/10 03:33:19;;;;;;;9.50;5.35;;;;;;;18.79;100.00;101408.44;5069837;28;20032;-46
2023/06/10 03:35:46;;;;;;;7.28;5.15;;;;;;;18.76;100.00;101418.97;5084373;28;20062;-46
2023/06/10 03:38:11;;;;;;;11.02;5.35;;;;;;;18.74;100.00;101410.13;5069693;28;20514;-46
2023/06/10 03:40:37;;;;;;;8.32;4.80;;;;;;;18.71;100.00;101416.03;5082782;28;20032;-45
2023/06/10 03:43:02;;;;;;;8.82;5.15;;;;;;;18.68;100.00;101425.50;5069203;28;20033;-46
2023/06/10 03:45:31;;;;;;;8.98;5.20;;;;;;;18.68;100.00;101427.38;5082009;28;20043;-45
2023/06/10 03:47:57;;;;;;;9.20;4.57;;;;;;;18.63;100.00;101426.16;5069850;28;20078;-44
2023/06/10 03:50:23;;;;;;;13.32;5.20;;;;;;;18.54;100.00;101422.03;5075202;28;20393;-45
2023/06/10 03:52:49;;;;;;;10.07;5.03;;;;;;;18.58;100.00;101423.25;5089695;28;20735;-46
2023/06/10 03:55:16;;;;;;;8.25;4.57;;;;;;;18.53;100.00;101420.34;5084577;28;20084;-45
2023/06/10 03:57:42;;;;;;;7.38;5.05;;;;;;;18.52;100.00;101424.13;5088673;28;20398;-44
2023/06/10 04:00:11;;;;;;;7.60;5.40;;;;;;;18.54;100.00;101432.09;5084646;28;20020;-45
2023/06/10 04:02:37;;;;;;;9.80;5.13;;;;;;;18.56;100.00;101430.84;5071398;28;20032;-45
2023/06/10 04:05:02;;;;;;;8.85;5.00;;;;;;;18.58;100.00;101434.16;5070640;28;20394;-43
2023/06/10 04:07:28;;;;;;;10.27;4.95;;;;;;;18.53;100.00;101436.69;5067683;28;20431;-44
2023/06/10 04:09:53;;;;;;;7.07;4.90;;;;;;;18.55;100.00;101434.59;5067716;28;20025;-47
2023/06/10 04:12:19;;;;;;;8.15;4.80;;;;;;;18.60;100.00;101442.94;5072859;28;20024;-46
2023/06/10 04:14:44;;;;;;;8.55;5.22;;;;;;;18.60;100.00;101436.66;5081330;28;20040;-44
2023/06/10 04:17:10;;;;;;;8.98;5.32;;;;;;;18.63;100.00;101441.66;5072616;28;20119;-47
2023/06/10 04:19:35;;;;;;;8.00;4.72;;;;;;;18.67;100.00;101442.06;5087876;28;20374;-47
2023/06/10 04:22:02;;;;;;;8.48;5.00;;;;;;;18.65;100.00;101442.28;5076238;28;20051;-45
2023/06/10 04:24:27;;;;;;;10.00;5.65;;;;;;;18.65;100.00;101445.84;5068706;28;20090;-47
2023/06/10 04:26:53;;;;;;;13.05;5.47;;;;;;;18.63;100.00;101437.06;5081820;28;20063;-45
2023/06/10 04:29:18;;;;;;;13.38;5.47;;;;;;;18.69;100.00;101448.13;5081868;28;20040;-44
2023/06/10 04:31:46;;;;;;;10.35;5.35;;;;;;;18.68;100.00;101454.66;5068994;28;20040;-44
2023/06/10 04:34:11;;;;;;;8.48;4.88;;;;;;;18.70;100.00;101453.38;5069233;28;20035;-47
2023/06/10 04:36:36;;;;;;;8.68;5.28;;;;;;;18.70;100.00;101452.53;5068756;28;20052;-42
2023/06/10 04:39:02;;;;;;;10.27;5.30;;;;;;;18.71;100.00;101454.19;5072500;28;20078;-46
2023/06/10 04:41:27;;;;;;;9.45;5.05;;;;;;;18.74;100.00;101460.03;5053334;28;20032;-44
2023/06/10 04:43:53;;;;;;;8.15;5.25;;;;;;;18.76;100.00;101457.13;5071648;28;20039;-48
2023/06/10 04:46:19;;;;;;;13.15;5.00;;;;;;;18.78;100.00;101465.94;5089705;28;20059;-45
2023/06/10 04:48:46;;;;;;;10.35;5.20;;;;;;;18.83;100.00;101461.47;5091933;28;20050;-44
2023/06/10 04:51:11;;;;;;;10.55;5.00;;;;;;;18.83;100.00;101463.38;5092434;28;20157;-45
2023/06/10 04:53:37;;;;;;;10.20;5.07;;;;;;;18.86;100.00;101462.94;5092128;28;20048;-44
2023/06/10 04:56:02;;;;;;;8.50;4.60;;;;;;;18.89;100.00;101453.47;5090744;28;20020;-45
2023/06/10 04:58:28;;;;;;;10.82;5.60;;;;;;;18.91;100.00;101459.56;5069420;28;20044;-44
2023/06/10 05:00:54;;;;;;;8.70;5.25;;;;;;;18.92;100.00;101467.50;5071145;28;20039;-44
2023/06/10 05:03:19;;;;;;;10.18;5.15;;;;;;;18.96;100.00;101462.44;5080304;28;20466;-44
2023/06/10 05:05:45;;;;;;;8.93;5.43;;;;;;;18.99;100.00;101468.28;5070785;28;20493;-43
2023/06/10 05:08:10;;;;;;;10.82;5.30;;;;;;;19.05;100.00;101461.94;5078014;28;20024;-45
2023/06/10 05:10:35;;;;;;;10.10;5.03;;;;;;;19.10;100.00;101464.00;5090980;28;20108;-46
2023/06/10 05:13:01;;;;;;;9.10;4.80;;;;;;;19.16;100.00;101463.09;5107765;28;20031;-45
2023/06/10 05:15:26;;;;;;;10.27;4.90;;;;;;;19.19;100.00;101461.81;5111099;28;20027;-46
2023/06/10 05:17:51;;;;;;;7.78;5.18;;;;;;;19.26;100.00;101457.13;5094722;28;20086;-46
2023/06/10 05:20:18;;;;;;;10.75;5.68;;;;;;;19.29;100.00;101457.50;5075561;28;20106;-46
2023/06/10 05:22:44;;;;;;;16.25;5.53;;;;;;;19.33;100.00;101457.91;5071880;28;20025;-44
2023/06/10 05:25:09;;;;;;;9.95;5.20;;;;;;;19.41;100.00;101448.59;5090772;28;20032;-48
2023/06/10 05:27:35;;;;;;;11.85;5.30;;;;;;;19.45;100.00;101456.06;5090674;28;20020;-45
2023/06/10 05:30:02;;;;;;;12.98;5.53;;;;;;;19.46;100.00;101457.78;5091431;28;20034;-47
2023/06/10 05:32:27;;;;;;;10.75;5.30;;;;;;;19.48;100.00;101449.34;5109483;28;20492;-46
2023/06/10 05:34:53;;;;;;;8.88;5.40;;;;;;;19.50;100.00;101464.44;5094132;28;20024;-46
2023/06/10 05:37:18;;;;;;;10.43;5.97;;;;;;;19.59;100.00;101455.94;5083124;28;20051;-45
2023/06/10 05:39:43;;;;;;;10.75;5.78;;;;;;;19.64;100.00;101454.22;5075892;28;20032;-47
2023/06/10 05:42:10;;;;;;;9.73;5.88;;;;;;;19.75;100.00;101466.31;5073342;28;20077;-50
2023/06/10 05:44:35;;;;;;;10.00;5.30;;;;;;;19.80;100.00;101460.16;5094624;28;20024;-47
2023/06/10 05:47:00;;;;;;;10.65;5.18;;;;;;;19.83;100.00;101466.00;5103097;28;20031;-45
2023/06/10 05:49:26;;;;;;;9.45;5.47;;;;;;;19.90;100.00;101458.53;5099573;27;20335;-47
2023/06/10 05:51:52;;;;;;;8.80;5.53;;;;;;;19.99;100.00;101461.00;5090972;28;20064;-45
2023/06/10 05:54:18;;;;;;;7.97;5.45;;;;;;;20.15;100.00;101468.53;5089317;28;20059;-46
2023/06/10 05:56:43;;;;;;;12.77;5.30;;;;;;;20.21;100.00;101464.06;5070686;28;20670;-46
2023/06/10 05:59:09;;;;;;;11.82;5.53;;;;;;;20.31;100.00;101465.16;5072729;28;20040;-45
2023/06/10 06:01:34;;;;;;;9.40;5.28;;;;;;;20.42;100.00;101470.91;5089046;28;20020;-44
2023/06/10 06:04:00;;;;;;;8.35;5.28;;;;;;;20.52;100.00;101468.47;5091378;28;20032;-45
2023/06/10 06:06:25;;;;;;;12.02;5.60;;;;;;;20.59;100.00;101466.50;5085614;28;20059;-46
2023/06/10 06:08:50;;;;;;;8.98;5.00;;;;;;;20.66;100.00;101467.22;5073511;28;20087;-47
2023/06/10 06:11:16;;;;;;;14.23;5.72;;;;;;;20.68;100.00;101458.78;5081900;28;20419;-47
2023/06/10 06:13:42;;;;;;;8.05;5.10;;;;;;;20.70;100.00;101473.91;5072397;28;20501;-45
2023/06/10 06:16:07;;;;;;;7.22;5.45;;;;;;;20.86;100.00;101464.19;5078127;28;20043;-45
2023/06/10 06:18:34;;;;;;;9.52;5.22;;;;;;;20.95;100.00;101472.88;5077321;28;20039;-45
2023/06/10 06:20:59;;;;;;;8.90;6.00;;;;;;;21.07;100.00;101468.25;5087056;28;20028;-49
2023/06/10 06:23:25;;;;;;;9.23;5.97;;;;;;;21.24;100.00;101480.13;5091718;28;20398;-43
2023/06/10 06:25:50;;;;;;;11.05;6.13;;;;;;;21.45;100.00;101480.66;5090771;28;20036;-44
2023/06/10 06:28:15;;;;;;;13.80;5.47;;;;;;;21.65;100.00;101475.63;5071814;28;20031;-46
2023/06/10 06:30:41;;;;;;;11.38;5.78;;;;;;;21.76;98.94;101482.16;5091645;28;20027;-46
2023/06/10 06:33:06;;;;;;;11.48;5.68;;;;;;;21.76;98.70;101473.13;5075425;28;20533;-47
2023/06/10 06:35:33;;;;;;;13.48;6.05;;;;;;;21.78;99.69;101473.72;5070799;28;20518;-42
2023/06/10 06:37:59;;;;;;;7.95;5.40;;;;;;;21.96;99.41;101476.31;5071072;28;20021;-48
2023/06/10 06:40:24;;;;;;;13.80;5.93;;;;;;;22.07;99.04;101474.59;5071118;28;20109;-46
2023/06/10 06:42:50;;;;;;;7.40;5.40;;;;;;;22.13;98.12;101479.09;5069759;28;20132;-45
2023/06/10 06:45:15;;;;;;;13.77;6.13;;;;;;;22.19;97.08;101480.06;5070925;28;20128;-44
2023/06/10 06:47:40;;;;;;;10.60;5.50;;;;;;;22.25;97.32;101490.91;5070849;28;20114;-45
2023/06/10 06:50:06;;;;;;;9.55;5.43;;;;;;;22.25;96.76;101490.91;5071032;28;20031;-47
2023/06/10 06:52:31;;;;;;;8.82;5.63;;;;;;;22.30;97.95;101484.66;5090233;28;20115;-45
2023/06/10 06:54:57;;;;;;;8.20;5.57;;;;;;;22.47;95.99;101488.28;5090552;28;20075;-47
2023/06/10 06:57:23;;;;;;;10.32;5.80;;;;;;;22.75;94.94;101489.34;5091150;28;20051;-46
2023/06/10 06:59:48;;;;;;;9.50;5.40;;;;;;;23.28;93.15;101485.31;5088937;28;20186;-43
2023/06/10 07:02:15;;;;;;;7.53;5.28;;;;;;;23.84;89.28;101480.63;5072610;28;20028;-45
2023/06/10 07:04:41;;;;;;;13.32;5.97;;;;;;;24.65;86.46;101479.09;5090264;28;20500;-47
2023/06/10 07:07:08;;;;;;;13.18;5.68;;;;;;;25.42;83.84;101488.81;5089361;28;20020;-46
2023/06/10 07:09:33;;;;;;;8.90;5.75;;;;;;;26.11;79.12;101489.75;5086889;28;20477;-45
2023/06/10 07:11:58;;;;;;;9.35;5.47;;;;;;;26.80;76.75;101486.59;5090294;28;20122;-45
2023/06/10 07:14:24;;;;;;;6.95;5.47;;;;;;;27.13;74.13;101490.75;5090136;28;20406;-48
2023/06/10 07:16:49;;;;;;;8.07;5.20;;;;;;;27.63;72.22;101493.72;5090191;28;20442;-46
2023/06/10 07:19:15;;;;;;;9.25;5.78;;;;;;;27.73;68.89;101492.88;5090317;28;20048;-46
2023/06/10 07:21:40;;;;;;;14.98;5.15;;;;;;;27.96;70.20;101496.94;5088952;28;20028;-48
2023/06/10 07:24:06;;;;;;;11.55;5.30;;;;;;;28.58;65.71;101492.75;5090473;28;20055;-44
2023/06/10 07:26:31;;;;;;;7.20;4.78;;;;;;;28.81;63.49;101502.31;5090373;28;20054;-45
2023/06/10 07:28:56;;;;;;;7.68;5.18;;;;;;;29.10;62.21;101494.03;5090302;28;20059;-46
2023/06/10 07:31:23;;;;;;;8.68;5.25;;;;;;;28.88;61.41;101488.94;5090155;28;20048;-43
2023/06/10 07:33:48;;;;;;;12.07;5.47;;;;;;;28.89;61.86;101492.53;5090328;28;20122;-47
2023/06/10 07:36:13;;;;;;;8.27;5.22;;;;;;;29.26;64.38;101485.59;5090557;28;20040;-47
2023/06/10 07:38:41;;;;;;;7.57;5.10;;;;;;;30.06;61.75;101495.25;5090371;28;20032;-44
2023/06/10 07:41:06;;;;;;;6.60;4.68;;;;;;;30.28;58.99;101492.75;5088970;28;20035;-44
2023/06/10 07:43:31;;;;;;;9.63;4.63;;;;;;;30.43;54.85;101488.91;5090237;28;20059;-45
2023/06/10 07:45:57;;;;;;;7.55;4.53;;;;;;;30.54;54.26;101497.91;5088421;28;20031;-44
2023/06/10 07:48:22;;;;;;;10.50;5.70;;;;;;;30.31;54.27;101494.94;5088923;28;20118;-45
2023/06/10 07:50:48;;;;;;;7.25;4.70;;;;;;;30.66;56.55;101491.91;5089644;28;20028;-46
2023/06/10 07:53:13;;;;;;;7.10;5.00;;;;;;;30.98;53.63;101507.81;5087772;28;20432;-47
2023/06/10 07:55:38;;;;;;;8.40;4.67;;;;;;;30.73;53.12;101492.34;5088563;28;20515;-47
2023/06/10 07:58:04;;;;;;;13.10;5.00;;;;;;;31.08;53.04;101499.31;5071702;28;20103;-48
2023/06/10 08:00:29;;;;;;;11.37;5.43;;;;;;;31.32;49.63;101495.53;5090565;28;20032;-48
2023/06/10 08:02:55;;;;;;;8.60;5.23;;;;;;;31.12;50.96;101494.75;5089420;28;20032;-42
2023/06/10 08:05:21;;;;;;;5.93;4.87;;;;;;;30.92;51.61;101490.41;5088524;28;20032;-43
2023/06/10 08:07:46;;;;;;;10.43;5.20;;;;;;;31.53;52.34;101498.78;5087580;28;20123;-44
2023/06/10 08:10:11;;;;;;;6.77;4.80;;;;;;;31.92;52.49;101495.50;5089625;28;20505;-42
2023/06/10 08:12:37;;;;;;;11.67;5.17;;;;;;;32.06;51.08;101504.69;5089579;28;20125;-45
2023/06/10 08:15:03;;;;;;;8.13;5.07;;;;;;;31.81;50.68;101503.22;5087973;28;20043;-44
2023/06/10 08:17:29;;;;;;;9.00;5.07;;;;;;;31.31;52.30;101493.88;5089099;28;20102;-47
2023/06/10 08:19:55;;;;;;;6.73;4.73;;;;;;;31.38;52.93;101500.72;5087962;28;20111;-47
2023/06/10 08:22:20;;;;;;;9.43;4.70;;;;;;;31.67;51.84;101503.22;5089062;28;20493;-45
2023/06/10 08:24:45;;;;;;;13.63;5.20;;;;;;;31.89;50.25;101510.84;5087700;28;20070;-46
2023/06/10 08:27:11;;;;;;;13.57;5.90;;;;;;;31.99;50.10;101503.44;5089247;28;20081;-45
2023/06/10 08:29:36;;;;;;;8.43;4.87;;;;;;;31.99;50.25;101515.41;5087869;28;20019;-43
2023/06/10 08:32:03;;;;;;;17.93;5.60;;;;;;;32.19;50.88;101507.75;5087783;28;20131;-44
2023/06/10 08:34:28;;;;;;;8.82;5.10;;;;;;;32.58;49.65;101510.78;5088994;28;20024;-45
2023/06/10 08:36:55;;;;;;;9.63;5.40;;;;;;;32.83;48.28;101505.72;5088899;28;20071;-44
2023/06/10 08:39:21;;;;;;;17.52;5.00;;;;;;;33.27;47.63;101504.06;5089075;28;20461;-46
2023/06/10 08:42:06;;;;;;;8.98;4.70;;;;;;;33.70;46.61;101509.03;5089245;28;20028;-45
2023/06/10 08:44:32;;;;;;;6.97;4.85;;;;;;;33.56;45.51;101511.94;5088958;28;20587;-46
2023/06/10 08:47:14;;;;;;;6.57;5.00;;;;;;;33.45;46.38;101500.22;5088798;28;20024;-46
2023/06/10 08:49:43;;;;;;;8.25;5.10;;;;;;;33.12;46.39;101507.25;5088851;28;20533;-46
2023/06/10 08:52:13;;;;;;;7.45;4.82;;;;;;;33.38;46.12;101504.59;5087368;28;20482;-48
2023/06/10 08:54:39;;;;;;;6.50;4.75;;;;;;;33.83;45.91;101504.47;5070490;28;20032;-45
2023/06/10 08:57:08;;;;;;;11.17;4.80;;;;;;;34.15;44.03;101511.66;5087567;28;20028;-44
2023/06/10 08:59:33;;;;;;;12.93;5.00;;;;;;;34.28;43.69;101510.72;5087479;28;20394;-46
2023/06/10 09:01:59;;;;;;;7.63;4.70;;;;;;;34.38;43.26;101514.31;5088691;28;20036;-44
2023/06/10 09:04:25;;;;;;;10.10;5.43;;;;;;;33.75;43.11;101511.69;5087438;28;20144;-44
2023/06/10 09:06:52;;;;;;;7.63;4.60;;;;;;;33.86;44.09;101515.84;5089037;28;20450;-47
2023/06/10 09:09:18;;;;;;;8.82;5.13;;;;;;;33.97;43.30;101516.38;5085150;28;20032;-46
2023/06/10 09:11:44;;;;;;;8.55;5.10;;;;;;;33.91;42.43;101512.06;5070524;28;20043;-45
2023/06/10 09:14:09;;;;;;;8.97;5.27;;;;;;;33.69;43.58;101510.19;5088944;28;20039;-45
2023/06/10 09:16:35;;;;;;;9.80;5.17;;;;;;;33.88;43.34;101507.94;5092673;28;20021;-44
2023/06/10 09:19:07;;;;;;;11.38;5.13;;;;;;;34.00;42.75;101514.91;5072798;28;20058;-48
2023/06/10 09:21:33;;;;;;;8.45;4.88;;;;;;;33.94;42.45;101505.00;5070924;28;20035;-45
2023/06/10 09:23:58;;;;;;;7.47;4.67;;;;;;;34.16;43.06;101509.69;5071882;28;20028;-44
2023/06/10 09:26:29;;;;;;;11.00;5.33;;;;;;;34.25;42.51;101511.34;5071001;28;20033;-46
2023/06/10 09:29:08;;;;;;;8.73;4.75;;;;;;;34.15;42.37;101505.25;5072032;28;20397;-44
2023/06/10 09:31:35;;;;;;;12.48;4.55;;;;;;;34.21;43.10;101501.97;5072737;28;20024;-46
2023/06/10 09:34:12;;;;;;;14.77;5.65;;;;;;;34.82;41.24;101509.59;5071015;28;20036;-43
2023/06/10 09:36:38;;;;;;;11.60;4.78;;;;;;;34.58;40.07;101505.31;5070981;28;20553;-45
2023/06/10 09:39:04;;;;;;;8.38;4.90;;;;;;;34.26;42.00;101506.59;5071835;28;20029;-47
2023/06/10 09:41:39;;;;;;;7.65;5.15;;;;;;;34.14;41.88;101500.81;5087682;28;20025;-46
2023/06/10 09:44:13;;;;;;;7.50;5.10;;;;;;;34.18;42.65;101496.19;5071796;28;20032;-47
2023/06/10 09:46:38;;;;;;;8.23;5.10;;;;;;;34.13;41.66;101504.78;5072395;28;20051;-48
2023/06/10 09:49:03;;;;;;;4.97;4.50;;;;;;;34.12;42.51;101489.97;5071669;28;20017;-43
2023/06/10 09:51:29;;;;;;;9.27;4.87;;;;;;;34.43;42.12;101494.59;5071793;28;20426;-46
2023/06/10 09:53:55;;;;;;;7.10;4.80;;;;;;;34.67;41.05;101494.13;5071589;28;20025;-43
2023/06/10 09:56:20;;;;;;;6.73;4.40;;;;;;;34.91;39.80;101504.78;5071865;28;20020;-44
2023/06/10 09:58:46;;;;;;;8.43;5.15;;;;;;;34.95;37.53;101503.78;5071480;28;20044;-49
2023/06/10 10:01:13;;;;;;;7.93;4.20;;;;;;;34.26;37.54;101499.03;5070484;28;20039;-45
2023/06/10 10:03:45;;;;;;;5.90;4.68;;;;;;;34.37;37.39;101495.91;5072559;28;20414;-45
2023/06/10 10:06:11;;;;;;;6.68;4.65;;;;;;;34.99;37.73;101501.16;5079127;28;20646;-47
2023/06/10 10:08:36;;;;;;;10.33;4.63;;;;;;;34.87;38.01;101498.22;5071622;28;20073;-44
2023/06/10 10:11:02;;;;;;;11.50;4.90;;;;;;;34.47;37.58;101501.19;5073019;28;20282;-42
2023/06/10 10:13:28;;;;;;;10.07;4.60;;;;;;;34.22;39.22;101488.81;5072733;28;20024;-44
2023/06/10 10:15:55;;;;;;;7.97;4.30;;;;;;;34.49;38.64;101493.28;5071568;28;20494;-45
2023/06/10 10:18:28;;;;;;;5.53;4.50;;;;;;;35.07;36.72;101500.34;5069637;28;20032;-46
2023/06/10 10:20:57;;;;;;;18.08;5.45;;;;;;;35.02;36.97;101500.50;5070020;28;20085;-47
2023/06/10 10:23:30;;;;;;;13.95;4.70;;;;;;;35.17;38.47;101491.59;5070007;28;20420;-47
2023/06/10 10:25:56;;;;;;;10.60;5.07;;;;;;;35.08;37.32;101499.19;5069411;28;20024;-46
2023/06/10 10:28:22;;;;;;;;;;;;;;;34.67;38.51;101499.72;5053233;28;20025;-45
2023/06/10 10:30:51;;;;;;;10.07;5.00;;;;;;;34.00;39.11;101504.53;5069717;28;19919;-48
2023/06/10 10:33:19;;;;;;;11.38;4.80;;;;;;;33.83;40.54;101493.31;5070223;28;20054;-43
2023/06/10 10:35:45;;;;;;;6.65;4.78;;;;;;;34.13;40.56;101494.41;5070822;28;20040;-44
2023/06/10 10:38:11;;;;;;;7.88;4.80;;;;;;;34.40;39.28;101492.47;5070030;28;20079;-46
2023/06/10 10:40:37;;;;;;;8.23;4.57;;;;;;;34.52;40.30;101485.06;5070810;28;20482;-45
2023/06/10 10:43:02;;;;;;;12.80;5.30;;;;;;;34.78;38.89;101486.22;5071082;28;20114;-45
2023/06/10 10:45:29;;;;;;;10.93;4.60;;;;;;;34.70;39.29;101482.28;5069543;28;20029;-45
2023/06/10 10:47:57;;;;;;;;;;;;;;;34.80;38.51;101478.31;5071029;28;20032;-46
2023/06/10 10:50:23;;;;;;;6.53;4.70;;;;;;;34.98;38.95;101477.13;5070735;28;19918;-45
2023/06/10 10:53:02;;;;;;;7.22;4.68;;;;;;;35.13;38.16;101490.63;5070916;28;20099;-46
2023/06/10 10:55:28;;;;;;;7.45;5.10;;;;;;;34.95;38.60;101483.41;5070760;28;20403;-45
2023/06/10 10:58:06;;;;;;;7.77;4.60;;;;;;;35.01;38.09;101481.25;5070337;28;20486;-47
2023/06/10 11:00:35;;;;;;;7.50;5.28;;;;;;;34.61;38.24;101479.50;5070290;28;20024;-46
2023/06/10 11:03:03;;;;;;;6.00;4.38;;;;;;;34.37;39.41;101484.75;5070385;28;20024;-46
2023/06/10 11:05:47;;;;;;;8.25;5.05;;;;;;;34.34;38.94;101477.00;5070211;28;20040;-45
2023/06/10 11:08:13;;;;;;;8.00;4.85;;;;;;;34.39;39.07;101477.66;5066832;28;20085;-46
2023/06/10 11:10:40;;;;;;;7.47;4.78;;;;;;;34.42;37.90;101484.56;5070492;28;20036;-48
2023/06/10 11:13:13;;;;;;;7.57;4.50;;;;;;;34.01;37.89;101474.63;5068888;28;20105;-46